Time;durP1;ratioP1;P1;durP2;ratioP2;P2;SDS_P1;SDS_P2;PMS_P1;PMS_P2;Temp;Humidity;BMP_temperature;BMP_pressure;BME280_temperature;BME280_humidity;BME280_pressure;Samples;Min_cycle;Max_cycle;Signal;HPM_P1;HPM_P2
2024/01/06 00:01:43;;;;;;;22.80;12.65;;;11.30;99.90;;;;;;4953660;28;20161;-78
2024/01/06 00:04:09;;;;;;;25.73;13.48;;;11.40;99.90;;;;;;4953674;28;20051;-78
2024/01/06 00:06:35;;;;;;;33.90;14.65;;;11.40;99.90;;;;;;4953811;29;20039;-77
2024/01/06 00:09:01;;;;;;;20.65;10.95;;;11.40;99.90;;;;;;4953592;29;20036;-77
2024/01/06 00:11:27;;;;;;;17.40;10.10;;;11.50;99.90;;;;;;4953425;29;20125;-77
2024/01/06 00:13:52;;;;;;;19.35;9.80;;;11.50;99.90;;;;;;4953551;28;20452;-77
2024/01/06 00:16:20;;;;;;;21.25;9.65;;;11.60;99.90;;;;;;4937293;29;20067;-77
2024/01/06 00:18:46;;;;;;;20.83;10.38;;;11.60;99.90;;;;;;4933399;29;20020;-78
2024/01/06 00:21:12;;;;;;;18.35;10.38;;;11.50;99.90;;;;;;4934363;29;20028;-77
2024/01/06 00:23:40;;;;;;;16.00;9.23;;;11.50;99.90;;;;;;4934866;29;20043;-76
2024/01/06 00:26:08;;;;;;;15.93;8.00;;;11.60;99.90;;;;;;4928212;29;20115;-78
2024/01/06 00:28:34;;;;;;;19.38;8.13;;;11.60;99.90;;;;;;4938222;29;20082;-78
2024/01/06 00:31:00;;;;;;;16.30;8.52;;;11.60;99.90;;;;;;4937369;29;20036;-78
2024/01/06 00:33:26;;;;;;;23.90;10.48;;;11.60;99.90;;;;;;4938253;29;20028;-76
2024/01/06 00:35:52;;;;;;;16.10;6.85;;;11.70;99.90;;;;;;4938198;29;20027;-76
2024/01/06 00:38:19;;;;;;;16.33;6.45;;;11.60;99.90;;;;;;4938330;29;20494;-76
2024/01/06 00:40:45;;;;;;;15.63;6.43;;;11.70;99.90;;;;;;4937736;29;20460;-76
2024/01/06 00:43:11;;;;;;;17.52;7.30;;;11.70;99.90;;;;;;4938133;29;20087;-76
2024/01/06 00:45:38;;;;;;;19.90;7.85;;;11.70;99.90;;;;;;4937726;29;20115;-78
2024/01/06 00:48:04;;;;;;;29.95;16.15;;;11.70;99.90;;;;;;4937853;29;20020;-77
2024/01/06 00:50:30;;;;;;;13.82;6.80;;;11.70;99.90;;;;;;4937680;29;20024;-78
2024/01/06 00:52:56;;;;;;;16.30;7.15;;;11.80;99.90;;;;;;4937829;29;20035;-78
2024/01/06 00:55:23;;;;;;;18.40;6.47;;;11.80;99.90;;;;;;4937811;29;20071;-76
2024/01/06 00:57:50;;;;;;;16.33;7.65;;;11.80;99.90;;;;;;4937650;29;20035;-77
2024/01/06 01:00:16;;;;;;;14.82;7.35;;;11.80;99.90;;;;;;4937792;29;20480;-77
2024/01/06 01:02:41;;;;;;;17.88;7.38;;;11.80;99.90;;;;;;4937472;29;20027;-77
2024/01/06 01:05:07;;;;;;;21.67;9.73;;;11.80;99.90;;;;;;4937675;29;20070;-77
2024/01/06 01:07:34;;;;;;;13.15;7.50;;;11.80;99.90;;;;;;4937567;29;20050;-77
2024/01/06 01:10:00;;;;;;;17.17;9.45;;;11.90;99.90;;;;;;4937211;29;20118;-77
2024/01/06 01:12:26;;;;;;;21.77;10.90;;;11.90;99.90;;;;;;4936463;29;20104;-77
2024/01/06 01:14:53;;;;;;;14.20;7.18;;;11.90;99.90;;;;;;4936815;29;20444;-77
2024/01/06 01:17:21;;;;;;;14.65;7.05;;;12.00;99.90;;;;;;4936688;29;20032;-77
2024/01/06 01:19:47;;;;;;;20.75;9.65;;;12.00;99.90;;;;;;4936887;29;20048;-77
2024/01/06 01:22:14;;;;;;;15.63;8.60;;;12.00;99.90;;;;;;4936522;29;20063;-76
2024/01/06 01:24:40;;;;;;;17.25;8.20;;;12.00;99.90;;;;;;4936457;29;20419;-77
2024/01/06 01:27:05;;;;;;;17.08;7.90;;;12.00;99.90;;;;;;4936736;29;20095;-77
2024/01/06 01:29:31;;;;;;;17.70;8.25;;;12.00;99.90;;;;;;4936532;29;20031;-75
2024/01/06 01:31:57;;;;;;;17.35;8.13;;;12.00;99.90;;;;;;4936336;29;20383;-77
2024/01/06 01:34:23;;;;;;;18.10;7.85;;;12.00;99.90;;;;;;4936308;29;20082;-78
2024/01/06 01:36:49;;;;;;;18.52;7.68;;;12.00;99.90;;;;;;4936076;29;20439;-78
2024/01/06 01:39:15;;;;;;;14.50;6.57;;;12.10;99.90;;;;;;4936149;29;20020;-77
2024/01/06 01:41:41;;;;;;;12.32;5.45;;;12.10;99.90;;;;;;4936211;29;20091;-75
2024/01/06 01:44:07;;;;;;;16.30;6.60;;;12.10;99.90;;;;;;4924654;29;20028;-77
2024/01/06 01:46:33;;;;;;;17.33;6.47;;;12.10;99.90;;;;;;4918486;29;20067;-75
2024/01/06 01:49:01;;;;;;;14.18;6.63;;;12.10;99.90;;;;;;4918323;29;20028;-76
2024/01/06 01:51:29;;;;;;;16.15;7.43;;;12.10;99.90;;;;;;4918179;29;20052;-75
2024/01/06 01:53:59;;;;;;;17.50;7.85;;;12.10;99.90;;;;;;4918333;29;20063;-78
2024/01/06 01:56:26;;;;;;;14.38;7.05;;;12.10;99.90;;;;;;4918236;29;20490;-76
2024/01/06 01:58:53;;;;;;;12.57;6.40;;;12.10;99.90;;;;;;4918203;29;20111;-77
2024/01/06 02:01:19;;;;;;;16.98;7.57;;;12.20;99.90;;;;;;4918101;29;20151;-76
2024/01/06 02:03:45;;;;;;;18.58;8.25;;;12.20;99.90;;;;;;4918271;29;20028;-76
2024/01/06 02:06:12;;;;;;;22.77;10.18;;;12.10;99.90;;;;;;4918155;29;20039;-79
2024/01/06 02:08:38;;;;;;;20.10;10.07;;;12.20;99.90;;;;;;4918063;29;20080;-75
2024/01/06 02:11:05;;;;;;;18.45;8.93;;;12.10;99.90;;;;;;4941439;28;20047;-75
2024/01/06 02:13:37;;;;;;;18.80;7.90;;;12.10;99.90;;;;;;4955048;29;20143;-78
2024/01/06 02:16:04;;;;;;;17.98;9.32;;;12.10;99.90;;;;;;4955045;29;20027;-79
2024/01/06 02:18:31;;;;;;;14.73;7.80;;;12.10;99.90;;;;;;4954719;29;20035;-78
2024/01/06 02:20:59;;;;;;;9.60;5.45;;;12.10;99.90;;;;;;4944590;29;20035;-77
2024/01/06 02:23:26;;;;;;;14.70;6.43;;;12.10;99.90;;;;;;4935896;29;20024;-77
2024/01/06 02:25:52;;;;;;;15.25;7.65;;;12.20;99.90;;;;;;4935419;29;20103;-78
2024/01/06 02:28:18;;;;;;;17.00;7.72;;;12.20;99.90;;;;;;4947939;29;20023;-79
2024/01/06 02:30:44;;;;;;;14.38;6.82;;;12.20;99.90;;;;;;4954750;28;20396;-78
2024/01/06 02:33:10;;;;;;;19.10;8.32;;;12.20;99.90;;;;;;4937813;29;20554;-77
2024/01/06 02:35:36;;;;;;;15.52;6.88;;;12.20;99.90;;;;;;4954621;28;20131;-78
2024/01/06 02:38:02;;;;;;;15.88;7.72;;;12.20;99.90;;;;;;4937776;29;20131;-77
2024/01/06 02:40:28;;;;;;;18.52;7.00;;;12.20;99.90;;;;;;4935490;29;20189;-78
2024/01/06 02:42:54;;;;;;;14.82;6.43;;;12.10;99.90;;;;;;4935285;29;20027;-78
2024/01/06 02:45:20;;;;;;;16.70;6.43;;;12.10;99.90;;;;;;4935304;29;20032;-78
2024/01/06 02:47:46;;;;;;;9.25;5.03;;;12.10;99.90;;;;;;4935153;29;20435;-78
2024/01/06 02:50:12;;;;;;;10.50;5.60;;;12.10;99.90;;;;;;4935103;29;20507;-78
2024/01/06 02:52:38;;;;;;;12.52;6.18;;;12.20;99.90;;;;;;4935154;29;20051;-77
2024/01/06 02:55:04;;;;;;;11.32;6.20;;;12.10;99.90;;;;;;4918330;29;20428;-78
2024/01/06 02:57:30;;;;;;;11.65;6.15;;;12.20;99.90;;;;;;4917975;29;20111;-78
2024/01/06 02:59:57;;;;;;;16.08;7.50;;;12.10;99.90;;;;;;4935238;29;20031;-78
2024/01/06 03:02:23;;;;;;;12.07;5.45;;;12.10;99.90;;;;;;4934870;29;20051;-77
2024/01/06 03:04:49;;;;;;;11.95;5.00;;;12.10;99.90;;;;;;4918350;29;20039;-78
2024/01/06 03:07:15;;;;;;;14.75;6.90;;;12.10;99.90;;;;;;4935005;29;20425;-77
2024/01/06 03:09:41;;;;;;;12.27;6.13;;;12.20;99.90;;;;;;4935144;29;20111;-76
2024/01/06 03:12:07;;;;;;;14.68;6.50;;;12.10;99.90;;;;;;4934676;29;20039;-76
2024/01/06 03:14:36;;;;;;;14.73;5.95;;;12.10;99.90;;;;;;4934739;29;20110;-76
2024/01/06 03:17:03;;;;;;;13.70;5.28;;;12.20;99.90;;;;;;4935051;29;20035;-77
2024/01/06 03:19:29;;;;;;;10.57;5.32;;;12.20;99.90;;;;;;4935895;29;20551;-78
2024/01/06 03:21:55;;;;;;;12.25;5.97;;;12.20;99.90;;;;;;4934778;29;20036;-76
2024/01/06 03:24:22;;;;;;;10.32;4.80;;;12.20;99.90;;;;;;4935224;29;20032;-76
2024/01/06 03:26:48;;;;;;;8.55;4.40;;;12.20;99.90;;;;;;4935032;29;20039;-76
2024/01/06 03:29:14;;;;;;;16.17;5.03;;;12.20;99.90;;;;;;4934752;29;20027;-77
2024/01/06 03:31:44;;;;;;;16.17;4.95;;;12.20;99.90;;;;;;4934272;29;20036;-76
2024/01/06 03:34:13;;;;;;;12.32;5.95;;;12.20;99.90;;;;;;4934579;29;20510;-75
2024/01/06 03:36:39;;;;;;;11.13;5.57;;;12.20;99.90;;;;;;4934772;29;20027;-76
2024/01/06 03:39:06;;;;;;;13.65;7.18;;;12.20;99.90;;;;;;4934797;29;20020;-78
2024/01/06 03:41:31;;;;;;;14.68;6.10;;;12.10;99.90;;;;;;4934629;29;20079;-78
2024/01/06 03:43:58;;;;;;;10.45;5.38;;;12.10;99.90;;;;;;4934381;29;20023;-78
2024/01/06 03:46:23;;;;;;;15.48;6.63;;;12.10;99.90;;;;;;4934051;29;20020;-78
2024/01/06 03:48:49;;;;;;;15.80;6.85;;;12.10;99.90;;;;;;4934462;29;20118;-78
2024/01/06 03:51:15;;;;;;;18.85;8.88;;;12.10;99.90;;;;;;4934124;29;20035;-77
2024/01/06 03:53:41;;;;;;;17.58;8.38;;;12.10;99.90;;;;;;4934602;29;20408;-78
2024/01/06 03:56:08;;;;;;;16.55;8.40;;;12.10;99.90;;;;;;4938459;29;20023;-78
2024/01/06 03:58:34;;;;;;;19.10;8.93;;;12.00;99.90;;;;;;4938238;28;20694;-78
2024/01/06 04:01:00;;;;;;;13.07;6.45;;;12.00;99.90;;;;;;4935945;29;20023;-78
2024/01/06 04:03:26;;;;;;;13.13;6.72;;;12.00;99.90;;;;;;4937994;29;20060;-77
2024/01/06 04:05:52;;;;;;;12.10;5.65;;;12.00;99.90;;;;;;4938261;29;20080;-78
2024/01/06 04:08:19;;;;;;;14.30;7.18;;;12.00;99.90;;;;;;4937546;29;20183;-77
2024/01/06 04:10:45;;;;;;;14.45;6.53;;;12.00;99.90;;;;;;4937935;29;20159;-78
2024/01/06 04:13:11;;;;;;;13.73;6.57;;;12.00;99.90;;;;;;4937408;29;20050;-79
2024/01/06 04:15:37;;;;;;;17.02;6.20;;;12.00;99.90;;;;;;4938266;29;20032;-76
2024/01/06 04:18:04;;;;;;;9.38;4.80;;;12.00;99.90;;;;;;4937298;29;20062;-76
2024/01/06 04:20:31;;;;;;;12.57;5.85;;;12.00;99.90;;;;;;4936733;29;20015;-78
2024/01/06 04:22:57;;;;;;;16.58;5.82;;;12.10;99.90;;;;;;4937339;29;20088;-77
2024/01/06 04:25:23;;;;;;;14.77;6.90;;;12.10;99.90;;;;;;4937582;29;20032;-79
2024/01/06 04:27:49;;;;;;;13.88;6.60;;;12.20;99.90;;;;;;4937366;29;20024;-78
2024/01/06 04:30:16;;;;;;;13.82;5.32;;;12.30;99.90;;;;;;4937176;29;20030;-78
2024/01/06 04:32:42;;;;;;;12.55;5.97;;;12.30;99.90;;;;;;4937597;29;20067;-78
2024/01/06 04:35:09;;;;;;;13.23;6.88;;;12.30;99.90;;;;;;4937005;29;20038;-76
2024/01/06 04:37:35;;;;;;;14.35;6.22;;;12.40;99.90;;;;;;4937065;29;20032;-76
2024/01/06 04:40:01;;;;;;;11.65;5.80;;;12.40;99.90;;;;;;4936681;29;20026;-77
2024/01/06 04:42:27;;;;;;;10.65;4.88;;;12.40;99.90;;;;;;4937094;29;20111;-76
2024/01/06 04:44:53;;;;;;;7.93;4.82;;;12.40;99.90;;;;;;4937082;29;20111;-77
2024/01/06 04:47:18;;;;;;;10.80;5.00;;;12.50;99.90;;;;;;4936836;29;20038;-77
2024/01/06 04:49:45;;;;;;;11.07;5.68;;;12.50;99.90;;;;;;4949840;28;20395;-76
2024/01/06 04:52:11;;;;;;;8.63;5.03;;;12.50;99.90;;;;;;4955546;28;20039;-76
2024/01/06 04:54:37;;;;;;;14.38;6.47;;;12.50;99.90;;;;;;4918138;29;20485;-76
2024/01/06 04:57:04;;;;;;;17.10;7.50;;;12.50;99.90;;;;;;4918274;29;20036;-77
2024/01/06 04:59:30;;;;;;;19.40;7.85;;;12.50;99.90;;;;;;4918314;29;20047;-76
2024/01/06 05:01:58;;;;;;;13.75;6.78;;;12.40;99.90;;;;;;4918149;29;20473;-76
2024/01/06 05:04:24;;;;;;;15.02;6.35;;;12.40;99.90;;;;;;4918305;29;20016;-76
2024/01/06 05:06:52;;;;;;;15.10;7.95;;;12.40;99.90;;;;;;4956221;29;20043;-77
2024/01/06 05:09:18;;;;;;;12.93;6.38;;;12.30;99.90;;;;;;4939979;29;20024;-78
2024/01/06 05:11:44;;;;;;;13.88;7.65;;;12.30;99.90;;;;;;4942424;28;20048;-75
2024/01/06 05:14:10;;;;;;;14.55;7.28;;;12.30;99.90;;;;;;4940852;29;20110;-76
2024/01/06 05:16:36;;;;;;;14.93;8.63;;;12.40;99.90;;;;;;4943497;29;20034;-77
2024/01/06 05:19:02;;;;;;;15.85;7.30;;;12.40;99.90;;;;;;4936530;29;20106;-78
2024/01/06 05:21:29;;;;;;;16.88;7.00;;;12.40;99.90;;;;;;4936523;29;20032;-78
2024/01/06 05:23:55;;;;;;;17.45;7.68;;;12.40;99.90;;;;;;4936568;29;20032;-77
2024/01/06 05:26:21;;;;;;;13.95;6.95;;;12.40;99.90;;;;;;4936638;29;20024;-78
2024/01/06 05:28:47;;;;;;;12.07;5.85;;;12.40;99.90;;;;;;4936686;29;20048;-76
2024/01/06 05:31:13;;;;;;;15.73;6.15;;;12.40;99.90;;;;;;4936951;29;20063;-77
2024/01/06 05:33:39;;;;;;;11.25;6.05;;;12.40;99.90;;;;;;4919418;29;20059;-77
2024/01/06 05:36:05;;;;;;;13.25;5.40;;;12.50;99.90;;;;;;4936655;29;20089;-78
2024/01/06 05:38:31;;;;;;;11.82;5.50;;;12.50;99.90;;;;;;4936335;29;20023;-77
2024/01/06 05:40:57;;;;;;;13.75;6.50;;;12.60;99.90;;;;;;4936380;29;20096;-76
2024/01/06 05:43:23;;;;;;;12.30;6.60;;;12.60;99.90;;;;;;4935976;29;20095;-78
2024/01/06 05:45:49;;;;;;;13.68;6.88;;;12.60;99.90;;;;;;4937015;29;20030;-77
2024/01/06 05:48:14;;;;;;;11.70;6.18;;;12.60;99.90;;;;;;4936644;29;20024;-76
2024/01/06 05:50:41;;;;;;;14.02;6.90;;;12.60;99.90;;;;;;4935403;29;20027;-78
2024/01/06 05:53:07;;;;;;;10.68;6.28;;;12.60;99.90;;;;;;4936118;29;20055;-79
2024/01/06 05:55:34;;;;;;;11.52;5.47;;;12.60;99.90;;;;;;4935885;29;20539;-76
2024/01/06 05:58:00;;;;;;;12.52;5.85;;;12.60;99.90;;;;;;4936306;29;20111;-76
2024/01/06 06:00:27;;;;;;;10.43;5.40;;;12.60;99.90;;;;;;4935574;29;20055;-75
2024/01/06 06:02:52;;;;;;;13.27;6.47;;;12.60;99.90;;;;;;4935893;29;20024;-76
2024/01/06 06:05:20;;;;;;;12.70;6.07;;;12.60;99.90;;;;;;4935213;29;20027;-75
2024/01/06 06:07:46;;;;;;;12.05;6.10;;;12.60;99.90;;;;;;4935727;29;20495;-76
2024/01/06 06:10:12;;;;;;;11.73;6.80;;;12.60;99.90;;;;;;4939939;29;20044;-77
2024/01/06 06:12:38;;;;;;;13.23;5.85;;;12.60;99.90;;;;;;4947315;29;20078;-74
2024/01/06 06:15:06;;;;;;;13.05;6.30;;;12.60;99.30;;;;;;4943583;29;20499;-75
2024/01/06 06:17:33;;;;;;;12.05;5.75;;;12.60;99.10;;;;;;4945487;28;20213;-79
2024/01/06 06:19:59;;;;;;;15.07;7.63;;;12.60;99.30;;;;;;4935445;29;20039;-75
2024/01/06 06:22:31;;;;;;;17.50;6.55;;;12.50;99.00;;;;;;4944159;29;20031;-77
2024/01/06 06:24:58;;;;;;;11.38;6.38;;;12.50;99.20;;;;;;4954445;28;20027;-77
2024/01/06 06:27:26;;;;;;;15.88;7.05;;;12.50;99.00;;;;;;4943793;29;20024;-77
2024/01/06 06:29:53;;;;;;;17.52;7.90;;;12.50;99.00;;;;;;4935342;29;20122;-78
2024/01/06 06:32:18;;;;;;;16.67;8.07;;;12.50;99.30;;;;;;4918450;29;20047;-77
2024/01/06 06:34:44;;;;;;;15.02;8.45;;;12.50;98.90;;;;;;4935229;29;20020;-77
2024/01/06 06:37:11;;;;;;;17.70;9.18;;;12.50;99.40;;;;;;4934843;29;20057;-77
2024/01/06 06:39:37;;;;;;;15.45;8.10;;;12.50;99.20;;;;;;4934552;29;20383;-77
2024/01/06 06:42:03;;;;;;;18.38;9.02;;;12.40;99.30;;;;;;4935232;29;20028;-77
2024/01/06 06:44:29;;;;;;;17.48;8.95;;;12.40;99.80;;;;;;4934906;29;20082;-78
2024/01/06 06:46:56;;;;;;;18.83;9.60;;;12.40;99.30;;;;;;4938882;29;20035;-77
2024/01/06 06:49:22;;;;;;;18.95;9.50;;;12.40;99.90;;;;;;4934972;29;20439;-77
2024/01/06 06:51:49;;;;;;;18.73;10.43;;;12.40;99.90;;;;;;4934782;29;20435;-77
2024/01/06 06:54:16;;;;;;;23.17;11.45;;;12.40;99.80;;;;;;4938933;29;20035;-76
2024/01/06 06:56:45;;;;;;;21.52;12.05;;;12.40;99.80;;;;;;4944216;28;20502;-76
2024/01/06 06:59:11;;;;;;;23.00;13.95;;;12.40;99.90;;;;;;4933966;29;20489;-76
2024/01/06 07:01:37;;;;;;;22.20;11.68;;;12.40;99.90;;;;;;4934240;29;20118;-76
2024/01/06 07:04:03;;;;;;;21.85;10.95;;;12.40;99.90;;;;;;4934757;29;20024;-76
2024/01/06 07:06:30;;;;;;;19.42;12.02;;;12.40;99.80;;;;;;4934956;29;20280;-75
2024/01/06 07:08:56;;;;;;;27.27;13.50;;;12.40;99.90;;;;;;4935216;29;20044;-78
2024/01/06 07:11:22;;;;;;;20.33;12.27;;;12.40;99.80;;;;;;4934395;29;20136;-78
2024/01/06 07:13:49;;;;;;;24.23;12.82;;;12.40;99.80;;;;;;4945429;28;20028;-76
2024/01/06 07:16:15;;;;;;;19.48;11.23;;;12.40;99.80;;;;;;4939093;29;20020;-76
2024/01/06 07:18:41;;;;;;;21.35;11.90;;;12.40;99.90;;;;;;4944630;29;20031;-77
2024/01/06 07:21:07;;;;;;;24.63;12.30;;;12.50;99.90;;;;;;4934744;29;20027;-75
2024/01/06 07:23:33;;;;;;;21.20;13.82;;;12.40;99.90;;;;;;4947271;29;20034;-75
2024/01/06 07:25:59;;;;;;;23.20;13.82;;;12.40;99.90;;;;;;4942043;29;20542;-76
2024/01/06 07:28:26;;;;;;;21.15;11.32;;;12.40;99.90;;;;;;4940256;28;20039;-76
2024/01/06 07:30:51;;;;;;;19.90;11.65;;;12.50;99.90;;;;;;4953745;28;20066;-77
2024/01/06 07:33:17;;;;;;;23.70;14.32;;;12.40;99.90;;;;;;4941881;29;20055;-78
2024/01/06 07:35:43;;;;;;;26.67;13.43;;;12.40;99.90;;;;;;4946696;28;20027;-78
2024/01/06 07:38:10;;;;;;;25.30;12.85;;;12.40;99.90;;;;;;4950809;29;20513;-76
2024/01/06 07:40:36;;;;;;;20.48;11.20;;;12.40;99.90;;;;;;4938761;29;20116;-74
2024/01/06 07:43:02;;;;;;;19.10;11.02;;;12.40;99.90;;;;;;4939502;29;21737;-78
2024/01/06 07:45:28;;;;;;;19.88;10.77;;;12.40;99.90;;;;;;4938377;29;20106;-77
2024/01/06 07:47:55;;;;;;;15.77;9.30;;;12.40;99.90;;;;;;4951097;28;20357;-75
2024/01/06 07:50:21;;;;;;;18.52;8.10;;;12.50;99.90;;;;;;4947987;28;20039;-76
2024/01/06 07:52:47;;;;;;;16.20;7.60;;;12.50;99.90;;;;;;4949292;28;20607;-75
2024/01/06 07:55:13;;;;;;;15.88;9.27;;;12.50;99.90;;;;;;4946196;28;20047;-78
2024/01/06 07:57:38;;;;;;;18.75;9.50;;;12.50;99.90;;;;;;4950940;29;20059;-75
2024/01/06 08:00:05;;;;;;;18.75;10.57;;;12.60;99.90;;;;;;4937727;29;20032;-76
2024/01/06 08:02:38;;;;;;;25.23;11.70;;;12.60;99.90;;;;;;4952449;29;20101;-77
2024/01/06 08:05:04;;;;;;;18.45;11.05;;;12.60;99.90;;;;;;4955525;28;20478;-78
2024/01/06 08:07:30;;;;;;;18.75;10.10;;;12.60;99.90;;;;;;4937608;29;20039;-74
2024/01/06 08:09:55;;;;;;;16.05;8.32;;;12.60;99.90;;;;;;4937564;29;20499;-75
2024/01/06 08:12:21;;;;;;;19.83;9.88;;;12.60;99.70;;;;;;4937596;29;20127;-75
2024/01/06 08:14:47;;;;;;;16.55;9.70;;;12.70;99.90;;;;;;4921234;29;20486;-76
2024/01/06 08:17:13;;;;;;;25.15;10.65;;;12.70;99.90;;;;;;4937533;29;20051;-76
2024/01/06 08:19:39;;;;;;;20.15;10.85;;;12.70;99.90;;;;;;4937545;29;20109;-74
2024/01/06 08:22:05;;;;;;;19.00;11.13;;;12.80;99.90;;;;;;4919977;29;20034;-74
2024/01/06 08:24:31;;;;;;;18.90;9.40;;;12.80;99.70;;;;;;4938005;29;20039;-76
2024/01/06 08:26:57;;;;;;;21.17;10.65;;;12.80;99.40;;;;;;4937068;29;20035;-74
2024/01/06 08:29:23;;;;;;;17.77;10.20;;;12.80;99.40;;;;;;4937611;29;20464;-75
2024/01/06 08:31:51;;;;;;;24.38;12.40;;;12.90;99.70;;;;;;4937113;29;20079;-76
2024/01/06 08:34:18;;;;;;;22.60;12.27;;;12.90;99.50;;;;;;4947644;28;20086;-75
2024/01/06 08:36:45;;;;;;;23.52;12.20;;;12.90;99.40;;;;;;4937543;29;20484;-77
2024/01/06 08:39:12;;;;;;;22.75;13.07;;;13.00;98.90;;;;;;4937417;29;20030;-75
2024/01/06 08:41:38;;;;;;;18.55;9.85;;;13.00;99.20;;;;;;4937651;29;20527;-75
2024/01/06 08:44:04;;;;;;;22.73;10.35;;;13.00;98.70;;;;;;4936887;29;20531;-76
2024/01/06 08:46:30;;;;;;;17.40;9.98;;;13.10;98.70;;;;;;4937054;29;20032;-76
2024/01/06 08:48:56;;;;;;;20.15;11.60;;;13.10;98.70;;;;;;4920055;29;20036;-77
2024/01/06 08:51:23;;;;;;;24.83;9.55;;;13.20;98.70;;;;;;4937026;29;20420;-78
2024/01/06 08:53:49;;;;;;;17.92;9.82;;;13.20;98.00;;;;;;4937329;29;20036;-76
2024/01/06 08:56:18;;;;;;;16.65;8.68;;;13.20;98.20;;;;;;4937149;29;20075;-77
2024/01/06 08:58:44;;;;;;;16.58;8.95;;;13.30;98.40;;;;;;4919666;29;20448;-76
2024/01/06 09:01:11;;;;;;;18.83;10.07;;;13.30;98.10;;;;;;4936930;29;20031;-77
2024/01/06 09:03:37;;;;;;;19.55;10.15;;;13.30;98.20;;;;;;4937167;29;20027;-77
2024/01/06 09:06:04;;;;;;;19.30;9.63;;;13.40;98.40;;;;;;4936610;29;20877;-77
2024/01/06 09:08:30;;;;;;;18.05;9.65;;;13.40;98.50;;;;;;4938810;29;20036;-77
2024/01/06 09:10:57;;;;;;;19.95;10.43;;;13.40;98.50;;;;;;4945446;28;20114;-76
2024/01/06 09:13:23;;;;;;;17.83;10.45;;;13.40;98.10;;;;;;4937134;29;20102;-76
2024/01/06 09:15:53;;;;;;;21.13;11.02;;;13.40;98.20;;;;;;4927894;29;20024;-76
2024/01/06 09:18:19;;;;;;;25.73;12.00;;;13.40;98.20;;;;;;4936437;29;20126;-76
2024/01/06 09:20:47;;;;;;;19.05;10.75;;;13.40;97.80;;;;;;4936258;29;20167;-76
2024/01/06 09:23:13;;;;;;;23.48;11.15;;;13.50;98.10;;;;;;4944372;28;20024;-76
2024/01/06 09:25:42;;;;;;;20.80;10.73;;;13.40;97.80;;;;;;4936349;29;20035;-77
2024/01/06 09:28:08;;;;;;;19.20;10.57;;;13.40;98.30;;;;;;4936370;29;20030;-76
2024/01/06 09:30:34;;;;;;;21.48;11.60;;;13.40;98.30;;;;;;4936744;29;20027;-76
2024/01/06 09:33:00;;;;;;;21.88;11.88;;;13.40;98.30;;;;;;4936060;29;20047;-76
2024/01/06 09:35:25;;;;;;;27.38;14.95;;;13.40;98.10;;;;;;4949201;28;20109;-77
2024/01/06 09:37:51;;;;;;;27.50;14.45;;;13.50;98.20;;;;;;4936320;29;20036;-77
2024/01/06 09:40:23;;;;;;;23.98;13.23;;;13.40;98.20;;;;;;4936420;29;20032;-77
2024/01/06 09:42:53;;;;;;;22.83;13.02;;;13.40;98.00;;;;;;4936573;29;20040;-77
2024/01/06 09:45:22;;;;;;;21.25;12.77;;;13.40;97.60;;;;;;4935910;29;20035;-77
2024/01/06 09:47:51;;;;;;;24.63;12.90;;;13.40;97.90;;;;;;4940765;29;20027;-77
2024/01/06 09:50:21;;;;;;;24.10;14.93;;;13.40;98.00;;;;;;4955258;28;20038;-77
2024/01/06 09:52:56;;;;;;;24.70;13.00;;;13.40;97.90;;;;;;4950182;28;20053;-76
2024/01/06 09:55:27;;;;;;;22.27;12.77;;;13.40;97.90;;;;;;4935959;29;20108;-77
2024/01/06 09:57:54;;;;;;;21.13;12.10;;;13.40;98.10;;;;;;4936968;29;20039;-77
2024/01/06 10:00:20;;;;;;;27.77;15.02;;;13.50;98.00;;;;;;4955254;29;20043;-77
2024/01/06 10:02:48;;;;;;;22.35;12.45;;;13.50;98.10;;;;;;4948547;29;20031;-76
2024/01/06 10:05:19;;;;;;;28.80;13.98;;;13.50;98.10;;;;;;4937781;29;20023;-76
2024/01/06 10:07:46;;;;;;;21.60;12.65;;;13.50;98.10;;;;;;4935794;29;20034;-77
2024/01/06 10:10:12;;;;;;;26.10;13.90;;;13.50;98.00;;;;;;4941119;28;20522;-76
2024/01/06 10:12:39;;;;;;;29.23;14.32;;;13.50;97.60;;;;;;4954917;29;20475;-76
2024/01/06 10:15:10;;;;;;;26.23;14.63;;;13.50;98.00;;;;;;4946596;29;20526;-77
2024/01/06 10:17:40;;;;;;;26.15;14.25;;;13.50;97.80;;;;;;4934585;29;20039;-77
2024/01/06 10:20:10;;;;;;;28.08;16.80;;;13.50;97.90;;;;;;4937741;29;20028;-77
2024/01/06 10:22:38;;;;;;;26.08;14.85;;;13.50;98.10;;;;;;4945031;29;20038;-77
2024/01/06 10:25:08;;;;;;;26.63;15.82;;;13.50;98.00;;;;;;4946814;28;20451;-77
2024/01/06 10:27:38;;;;;;;27.42;14.57;;;13.50;98.00;;;;;;4934884;29;20031;-76
2024/01/06 10:30:08;;;;;;;27.38;15.23;;;13.50;98.50;;;;;;4935237;29;20082;-77
2024/01/06 10:32:36;;;;;;;24.40;13.00;;;13.50;98.30;;;;;;4935368;29;20404;-76
2024/01/06 10:35:03;;;;;;;23.80;12.93;;;13.50;98.00;;;;;;4935491;29;20052;-76
2024/01/06 10:37:30;;;;;;;23.67;12.98;;;13.50;98.10;;;;;;4935025;29;20407;-76
2024/01/06 10:40:13;;;;;;;22.88;11.70;;;13.50;97.90;;;;;;4917946;29;20024;-77
2024/01/06 10:42:41;;;;;;;23.33;11.77;;;13.50;98.10;;;;;;4934723;29;20031;-77
2024/01/06 10:45:11;;;;;;;24.85;11.30;;;13.50;98.00;;;;;;4934519;29;20054;-77
2024/01/06 10:47:39;;;;;;;24.02;13.88;;;13.60;97.90;;;;;;4934542;29;20035;-76
2024/01/06 10:50:06;;;;;;;28.27;16.67;;;13.60;97.80;;;;;;4934443;29;20060;-77
2024/01/06 10:52:32;;;;;;;24.00;13.85;;;13.60;97.80;;;;;;4935110;29;20040;-77
2024/01/06 10:54:58;;;;;;;26.42;14.27;;;13.60;98.60;;;;;;4935086;29;20392;-77
2024/01/06 10:57:24;;;;;;;26.25;15.85;;;13.50;99.20;;;;;;4937323;29;20039;-77
2024/01/06 10:59:52;;;;;;;27.52;16.40;;;13.40;99.70;;;;;;4953524;29;20027;-78
2024/01/06 11:02:19;;;;;;;28.52;19.83;;;13.40;99.70;;;;;;4949256;29;20221;-77
2024/01/06 11:04:50;;;;;;;29.40;16.65;;;13.30;99.90;;;;;;4935173;29;20031;-77
2024/01/06 11:07:22;;;;;;;32.63;16.67;;;13.20;99.90;;;;;;4934953;29;20380;-76
2024/01/06 11:09:54;;;;;;;24.00;13.97;;;13.10;99.90;;;;;;4934507;29;20039;-77
2024/01/06 11:12:20;;;;;;;35.70;22.13;;;13.00;99.90;;;;;;4915351;29;20056;-76
2024/01/06 11:14:46;;;;;;;30.63;18.42;;;12.90;99.90;;;;;;4929136;29;20428;-77
2024/01/06 11:17:12;;;;;;;28.27;18.58;;;12.90;99.90;;;;;;4920865;29;20028;-76
2024/01/06 11:19:39;;;;;;;21.90;12.30;;;12.80;99.90;;;;;;4919695;29;20043;-76
2024/01/06 11:22:22;;;;;;;21.77;12.65;;;12.80;99.90;;;;;;4930160;29;20028;-75
2024/01/06 11:24:50;;;;;;;21.10;12.05;;;12.80;99.90;;;;;;4919772;29;20036;-76
2024/01/06 11:27:22;;;;;;;22.48;11.95;;;12.70;99.90;;;;;;4915588;29;20019;-75
2024/01/06 11:29:51;;;;;;;24.15;13.77;;;12.70;99.90;;;;;;4915289;29;20199;-78
2024/01/06 11:32:21;;;;;;;31.25;15.43;;;12.70;99.90;;;;;;4898596;29;20048;-77
2024/01/06 11:34:50;;;;;;;27.85;15.23;;;12.70;99.90;;;;;;4911514;29;20028;-76
2024/01/06 11:37:24;;;;;;;34.05;19.95;;;12.70;99.90;;;;;;4915137;29;20025;-77
2024/01/06 11:39:50;;;;;;;28.55;15.48;;;12.70;99.90;;;;;;4915735;29;20484;-77
2024/01/06 11:42:16;;;;;;;24.42;15.63;;;12.70;99.90;;;;;;4915468;29;20028;-76
2024/01/06 11:44:50;;;;;;;28.05;14.80;;;12.70;99.90;;;;;;4916731;29;20087;-77
2024/01/06 11:47:18;;;;;;;22.42;13.07;;;12.70;99.90;;;;;;4915615;29;20027;-77
2024/01/06 11:49:47;;;;;;;23.25;12.73;;;12.60;99.90;;;;;;4916602;29;20015;-77
2024/01/06 11:52:14;;;;;;;22.67;12.73;;;12.60;99.90;;;;;;4923116;29;20091;-77
2024/01/06 11:54:41;;;;;;;21.00;12.65;;;12.60;99.90;;;;;;4902977;29;20060;-77
2024/01/06 11:57:07;;;;;;;23.35;12.70;;;12.60;99.90;;;;;;4930052;29;20095;-77
2024/01/06 11:59:33;;;;;;;17.48;10.23;;;12.60;99.90;;;;;;4929605;29;20028;-77
2024/01/06 12:01:59;;;;;;;19.85;10.13;;;12.60;99.90;;;;;;4915211;29;20112;-77
2024/01/06 12:04:27;;;;;;;21.13;10.90;;;12.60;99.90;;;;;;4915478;29;20452;-77
2024/01/06 12:06:54;;;;;;;17.88;10.98;;;12.60;99.90;;;;;;4914921;29;20032;-76
2024/01/06 12:09:20;;;;;;;23.42;12.43;;;12.60;99.90;;;;;;4929683;29;20027;-77
2024/01/06 12:11:46;;;;;;;21.58;12.25;;;12.50;99.90;;;;;;4946595;29;20046;-77
2024/01/06 12:14:13;;;;;;;18.88;11.25;;;12.50;99.90;;;;;;4934198;29;20031;-77
2024/01/06 12:16:39;;;;;;;21.65;11.95;;;12.50;99.90;;;;;;4934184;29;20038;-77
2024/01/06 12:19:05;;;;;;;18.67;11.27;;;12.50;99.90;;;;;;4934088;29;20015;-77
2024/01/06 12:21:33;;;;;;;18.17;10.57;;;12.50;99.90;;;;;;4934853;29;20027;-77
2024/01/06 12:24:20;;;;;;;20.48;10.93;;;12.50;99.90;;;;;;4938084;29;20040;-77
2024/01/06 12:26:46;;;;;;;19.95;10.70;;;12.40;99.90;;;;;;4937936;29;20114;-77
2024/01/06 12:29:13;;;;;;;18.10;10.68;;;12.40;99.90;;;;;;4937391;29;20387;-77
2024/01/06 12:31:40;;;;;;;24.65;10.98;;;12.40;99.90;;;;;;4937778;29;20480;-77